Altamont, New York
Current Conditions -  °F | °C
As of 4:02 PM on Thursday 27 Nov 2014 (Local Time) from KALB Reporting Station
Light Snow Light Snow  
Wind Chill: 25°   Ceiling: 3200
Heat Index: 30°   Visibility: 2.5mi
Dew Point: 26°   Wind: 5mph
Humidity: 85%   Direction: 20°NNE
Pressure: 30.02"   Gusts: NA
Location:  42.7°N, 74.03°W
Report Text: KALB 272102Z 02004KT 2 1/2SM -SN BR SCT008 BKN032 OVC040 M01/M03 A3002 RMK AO2 VIS 2V3 P0000 T10111033
Loading
Personal Weather Stations






























Interactive Weather Map New forecast layout! Learn more

10-Day Weather Forecast

Advertisements
Track Severe Weather on mobile